Aviation Digital Data Service (ADDS)

Output produced by METARs form (0842 UTC 24 March 2019)
found at http://www.aviationweather.gov/metar/data/
 
Forecast for: EFMA (MARIEHAMN/ALAND , FI)
Text: TAF EFMA 240823Z 2409/2418 26012G23KT CAVOK
Forecast period: 0900 to 1800 UTC 24 March 2019
Forecast type: FROM: standard forecast or significant change
Winds: from the W (260 degrees) at 14 MPH (12 knots; 6.2 m/s)
gusting to 26 MPH (23 knots; 11.8 m/s)
Visibility: 6 or more miles 10+ km)
Ceiling: unknown
Clouds: missing
Weather: NSW  (no significant weather)